Time;durP1;ratioP1;P1;durP2;ratioP2;P2;SDS_P1;SDS_P2;PMS_P1;PMS_P2;Temp;Humidity;BMP_temperature;BMP_pressure;BME280_temperature;BME280_humidity;BME280_pressure;Samples;Min_cycle;Max_cycle;Signal;HPM_P1;HPM_P2
2021/05/24 00:00:10;;;;;;;2.63;2.43;;;11.00;99.90;;;;;;5012752;28;20413;-68
2021/05/24 00:02:38;;;;;;;2.05;1.70;;;10.90;99.90;;;;;;5012217;28;20452;-69
2021/05/24 00:05:08;;;;;;;2.10;1.70;;;10.90;99.90;;;;;;5012471;28;20266;-68
2021/05/24 00:07:36;;;;;;;3.50;2.37;;;10.90;99.90;;;;;;5012572;28;20398;-68
2021/05/24 00:10:06;;;;;;;2.63;2.43;;;10.90;99.90;;;;;;5012138;28;20936;-66
2021/05/24 00:12:34;;;;;;;2.20;2.00;;;10.80;99.90;;;;;;5011963;28;21017;-66
2021/05/24 00:15:03;;;;;;;1.93;1.60;;;10.80;99.90;;;;;;5012371;28;20785;-68
2021/05/24 00:17:31;;;;;;;2.00;1.80;;;10.80;99.90;;;;;;5012222;28;20460;-67
2021/05/24 00:19:59;;;;;;;5.23;2.50;;;10.70;99.90;;;;;;5012599;28;20506;-68
2021/05/24 00:22:27;;;;;;;3.70;2.05;;;10.60;99.90;;;;;;4994240;28;20464;-68
2021/05/24 00:24:55;;;;;;;2.22;2.03;;;10.50;99.90;;;;;;5012279;28;20693;-68
2021/05/24 00:27:22;;;;;;;2.63;1.77;;;10.50;99.90;;;;;;5012409;28;20677;-68
2021/05/24 00:29:50;;;;;;;2.47;2.17;;;10.60;99.90;;;;;;5012217;28;20209;-68
2021/05/24 00:32:18;;;;;;;2.10;1.57;;;10.60;99.90;;;;;;5012152;28;20937;-66
2021/05/24 00:34:46;;;;;;;3.17;2.17;;;10.60;99.90;;;;;;5012354;28;20441;-66
2021/05/24 00:37:14;;;;;;;2.05;1.65;;;10.60;99.90;;;;;;5011820;28;20750;-66
2021/05/24 00:39:42;;;;;;;3.25;2.90;;;10.50;99.90;;;;;;5012358;28;20202;-65
2021/05/24 00:42:10;;;;;;;2.00;1.80;;;10.40;99.90;;;;;;5011607;28;20240;-66
2021/05/24 00:44:37;;;;;;;2.60;1.98;;;10.40;99.90;;;;;;4993949;28;20658;-66
2021/05/24 00:47:05;;;;;;;2.95;2.55;;;10.30;99.90;;;;;;5012136;28;20196;-67
2021/05/24 00:49:33;;;;;;;2.58;2.28;;;10.40;99.90;;;;;;5012290;28;20189;-67
2021/05/24 00:52:02;;;;;;;2.53;2.00;;;10.30;99.90;;;;;;5012401;28;20278;-68
2021/05/24 00:54:30;;;;;;;3.80;3.40;;;10.30;99.90;;;;;;5012769;28;20313;-66
2021/05/24 00:56:59;;;;;;;3.20;2.78;;;10.10;99.90;;;;;;5012596;28;20221;-67
2021/05/24 00:59:26;;;;;;;2.80;2.60;;;10.10;99.90;;;;;;5012036;28;20225;-66
2021/05/24 01:01:54;;;;;;;3.45;2.50;;;10.10;99.90;;;;;;5011663;28;20482;-65
2021/05/24 01:04:22;;;;;;;2.40;1.98;;;10.10;99.90;;;;;;5011344;28;20313;-67
2021/05/24 01:06:50;;;;;;;5.50;2.50;;;10.10;99.90;;;;;;5011588;28;20272;-67
2021/05/24 01:09:19;;;;;;;3.38;2.40;;;10.00;99.90;;;;;;5011409;28;20244;-66
2021/05/24 01:11:48;;;;;;;3.00;1.80;;;10.00;99.90;;;;;;5011063;28;20202;-68
2021/05/24 01:14:17;;;;;;;2.90;2.53;;;10.00;99.90;;;;;;4993683;28;20229;-67
2021/05/24 01:16:48;;;;;;;2.92;2.65;;;10.10;99.90;;;;;;5011036;28;20214;-67
2021/05/24 01:19:16;;;;;;;3.50;3.10;;;10.00;99.90;;;;;;5011231;28;20210;-68
2021/05/24 01:21:45;;;;;;;2.70;2.17;;;9.90;99.90;;;;;;5011091;28;20273;-66
2021/05/24 01:24:13;;;;;;;2.88;2.35;;;9.90;99.90;;;;;;5010403;28;20210;-68
2021/05/24 01:26:42;;;;;;;4.32;2.60;;;9.80;99.90;;;;;;5010877;28;20194;-68
2021/05/24 01:29:10;;;;;;;3.80;2.85;;;9.80;99.90;;;;;;5010953;28;20728;-68
2021/05/24 01:31:38;;;;;;;4.75;3.25;;;9.80;99.90;;;;;;5010764;28;20720;-68
2021/05/24 01:34:06;;;;;;;5.00;3.80;;;9.80;99.90;;;;;;5010813;28;20212;-68
2021/05/24 01:36:34;;;;;;;3.70;3.35;;;9.70;99.90;;;;;;5011131;28;20577;-68
2021/05/24 01:39:04;;;;;;;4.20;2.70;;;9.60;99.90;;;;;;5010729;28;20241;-67
2021/05/24 01:41:33;;;;;;;3.17;2.88;;;9.50;99.90;;;;;;5010752;28;20204;-66
2021/05/24 01:44:00;;;;;;;3.50;3.10;;;9.60;99.90;;;;;;5010533;28;20702;-67
2021/05/24 01:46:28;;;;;;;4.38;2.92;;;9.60;99.90;;;;;;5010797;28;20677;-68
2021/05/24 01:48:56;;;;;;;3.65;3.30;;;9.60;99.90;;;;;;5010792;28;20758;-66
2021/05/24 01:51:23;;;;;;;3.25;2.85;;;9.60;99.90;;;;;;4993024;28;20194;-67
2021/05/24 01:53:51;;;;;;;5.15;3.10;;;9.50;99.90;;;;;;5010638;28;20210;-68
2021/05/24 01:56:19;;;;;;;3.55;2.55;;;9.60;99.90;;;;;;5010679;28;20190;-68
2021/05/24 01:58:47;;;;;;;4.60;3.33;;;9.50;99.90;;;;;;5010842;28;20216;-67
2021/05/24 02:01:15;;;;;;;3.20;2.55;;;9.50;99.90;;;;;;5010761;28;20217;-67
2021/05/24 02:03:44;;;;;;;4.30;3.30;;;9.60;99.90;;;;;;5011125;28;20570;-68
2021/05/24 02:06:12;;;;;;;3.35;3.05;;;9.60;99.90;;;;;;4993164;28;20198;-66
2021/05/24 02:08:39;;;;;;;4.38;2.70;;;9.60;99.90;;;;;;5010624;28;20178;-66
2021/05/24 02:11:07;;;;;;;3.00;2.80;;;9.50;99.90;;;;;;5010466;28;20190;-67
2021/05/24 02:13:36;;;;;;;3.90;3.50;;;9.40;99.90;;;;;;5011094;28;20210;-66
2021/05/24 02:16:04;;;;;;;5.05;2.90;;;9.40;99.90;;;;;;5010783;28;20197;-67
2021/05/24 02:18:32;;;;;;;3.13;2.63;;;9.30;99.90;;;;;;5010896;28;20716;-66
2021/05/24 02:20:59;;;;;;;3.47;2.65;;;9.40;99.90;;;;;;4993123;28;20678;-67
2021/05/24 02:23:29;;;;;;;3.08;2.63;;;9.40;99.90;;;;;;5010617;28;20583;-67
2021/05/24 02:25:57;;;;;;;3.35;2.90;;;9.30;99.90;;;;;;5011065;28;20558;-67
2021/05/24 02:28:25;;;;;;;3.95;2.83;;;9.40;99.90;;;;;;5011044;28;20190;-66
2021/05/24 02:30:55;;;;;;;2.97;2.13;;;9.30;99.90;;;;;;5024043;23;20225;-68
2021/05/24 02:33:23;;;;;;;2.75;2.50;;;9.40;99.90;;;;;;5010955;28;20324;-67
2021/05/24 02:35:50;;;;;;;3.42;2.55;;;9.30;99.90;;;;;;5012885;28;20626;-67
2021/05/24 02:38:18;;;;;;;2.92;2.72;;;9.30;99.90;;;;;;5014622;28;20248;-67
2021/05/24 02:40:46;;;;;;;2.95;2.65;;;9.40;99.90;;;;;;5014655;28;20175;-67
2021/05/24 02:43:14;;;;;;;3.42;2.55;;;9.30;99.90;;;;;;5014725;28;20210;-68
2021/05/24 02:45:41;;;;;;;3.85;2.70;;;9.30;99.90;;;;;;5014985;28;20214;-66
2021/05/24 02:48:10;;;;;;;3.35;2.72;;;9.30;99.90;;;;;;5014961;28;20204;-67
2021/05/24 02:50:38;;;;;;;4.78;2.92;;;9.30;99.90;;;;;;5014236;28;20194;-67
2021/05/24 02:53:06;;;;;;;3.40;2.95;;;9.30;99.90;;;;;;4996428;28;20224;-67
2021/05/24 02:55:34;;;;;;;4.07;2.75;;;9.40;99.90;;;;;;5014289;28;20185;-66
2021/05/24 02:58:01;;;;;;;3.60;2.58;;;9.30;99.90;;;;;;5014210;28;20308;-69
2021/05/24 03:00:29;;;;;;;4.22;3.53;;;9.30;99.90;;;;;;5014216;28;20257;-66
2021/05/24 03:02:57;;;;;;;3.00;2.70;;;9.30;99.90;;;;;;5013850;28;20373;-67
2021/05/24 03:05:26;;;;;;;3.85;3.45;;;9.20;99.90;;;;;;5013953;28;20642;-68
2021/05/24 03:07:55;;;;;;;4.55;3.03;;;9.20;99.90;;;;;;5013866;28;20244;-66
2021/05/24 03:10:24;;;;;;;2.67;2.25;;;9.20;99.90;;;;;;5014081;28;20261;-67
2021/05/24 03:12:53;;;;;;;3.22;2.70;;;9.30;99.90;;;;;;4995970;28;20777;-66
2021/05/24 03:15:23;;;;;;;2.35;2.10;;;9.40;99.90;;;;;;5013745;28;20648;-67
2021/05/24 03:17:51;;;;;;;3.50;2.70;;;9.40;99.90;;;;;;5013707;28;20273;-67
2021/05/24 03:20:19;;;;;;;2.67;2.47;;;9.40;99.90;;;;;;5013581;28;20621;-67
2021/05/24 03:22:48;;;;;;;3.10;2.50;;;9.40;99.90;;;;;;5013359;28;20210;-66
2021/05/24 03:25:17;;;;;;;3.92;2.92;;;9.40;99.90;;;;;;5013437;28;20218;-70
2021/05/24 03:27:46;;;;;;;8.20;3.00;;;9.50;99.90;;;;;;5013362;28;20564;-67
2021/05/24 03:30:15;;;;;;;3.45;3.03;;;9.50;99.90;;;;;;5013396;28;20575;-66
2021/05/24 03:32:43;;;;;;;2.58;2.35;;;9.70;99.90;;;;;;5013266;28;20304;-67
2021/05/24 03:35:12;;;;;;;5.13;3.25;;;10.00;99.90;;;;;;5013555;28;20670;-67
2021/05/24 03:37:39;;;;;;;5.20;2.50;;;10.30;99.90;;;;;;5013244;28;20681;-66
2021/05/24 03:40:10;;;;;;;3.13;2.55;;;10.60;99.90;;;;;;5013183;28;20284;-66
2021/05/24 03:42:39;;;;;;;3.10;2.80;;;11.00;99.90;;;;;;5012812;28;20225;-68
2021/05/24 03:45:09;;;;;;;4.10;3.63;;;11.40;99.90;;;;;;5013003;28;20181;-69
2021/05/24 03:47:37;;;;;;;2.87;2.00;;;12.00;99.90;;;;;;5012757;28;20182;-67
2021/05/24 03:50:06;;;;;;;3.30;2.00;;;12.70;99.90;;;;;;5013228;28;20419;-69
2021/05/24 03:52:34;;;;;;;2.70;2.37;;;13.60;99.90;;;;;;5012719;28;20464;-67
2021/05/24 03:55:01;;;;;;;2.53;2.13;;;14.40;99.90;;;;;;4995230;28;20440;-67
2021/05/24 03:57:30;;;;;;;2.87;2.40;;;15.50;99.90;;;;;;5013203;28;20786;-68
2021/05/24 03:59:58;;;;;;;2.80;2.60;;;16.50;99.90;;;;;;5012874;28;20461;-66
2021/05/24 04:02:26;;;;;;;4.60;2.77;;;17.30;99.90;;;;;;5012639;28;20746;-67
2021/05/24 04:04:55;;;;;;;3.20;2.90;;;17.50;99.90;;;;;;5014441;28;20428;-66
2021/05/24 04:07:25;;;;;;;3.53;3.20;;;18.00;99.90;;;;;;5013296;28;20418;-68
2021/05/24 04:09:53;;;;;;;3.20;2.60;;;18.40;99.90;;;;;;5012730;28;20803;-67
2021/05/24 04:12:21;;;;;;;7.43;3.27;;;18.40;99.90;;;;;;5012295;28;20766;-68
2021/05/24 04:14:50;;;;;;;4.07;3.00;;;18.60;99.90;;;;;;5012458;28;20453;-67
2021/05/24 04:17:21;;;;;;;7.53;3.90;;;19.20;99.90;;;;;;5012808;28;20438;-66
2021/05/24 04:19:50;;;;;;;3.27;3.00;;;19.80;99.90;;;;;;4994519;28;20502;-66
2021/05/24 04:22:18;;;;;;;4.17;3.60;;;20.70;99.90;;;;;;5012075;28;20431;-67
2021/05/24 04:24:45;;;;;;;6.07;2.83;;;20.40;99.90;;;;;;5012224;28;20391;-67
2021/05/24 04:27:13;;;;;;;4.50;3.10;;;20.50;99.90;;;;;;5012256;28;20392;-68
2021/05/24 04:29:41;;;;;;;3.37;3.03;;;21.20;99.90;;;;;;5012670;28;20501;-66
2021/05/24 04:32:09;;;;;;;3.00;2.67;;;21.70;99.90;;;;;;5012018;28;20401;-66
2021/05/24 04:34:37;;;;;;;2.60;2.40;;;22.40;99.90;;;;;;5012473;28;20790;-66
2021/05/24 04:37:05;;;;;;;3.03;2.30;;;22.30;99.90;;;;;;5011993;28;20445;-66
2021/05/24 04:39:32;;;;;;;4.00;2.33;;;23.40;99.90;;;;;;5012053;28;20443;-67
2021/05/24 04:42:01;;;;;;;2.23;1.73;;;23.70;99.90;;;;;;5012035;28;20421;-67
2021/05/24 04:44:28;;;;;;;4.50;2.43;;;24.10;99.90;;;;;;5011828;28;20484;-67
2021/05/24 04:46:56;;;;;;;2.43;2.10;;;24.10;99.90;;;;;;5012072;28;20425;-67
2021/05/24 04:49:24;;;;;;;2.60;2.00;;;24.00;99.90;;;;;;5012457;28;20407;-66
2021/05/24 04:51:52;;;;;;;2.23;2.03;;;24.80;99.90;;;;;;5013987;28;20486;-68
2021/05/24 04:54:20;;;;;;;2.50;2.30;;;24.90;99.90;;;;;;5017252;28;20953;-68
2021/05/24 04:56:48;;;;;;;3.43;2.47;;;24.40;99.90;;;;;;4996715;28;20860;-66
2021/05/24 04:59:15;;;;;;;2.60;2.30;;;23.40;99.90;;;;;;5013112;28;20443;-67
2021/05/24 05:01:47;;;;;;;3.30;2.40;;;23.60;99.90;;;;;;5013265;28;20406;-67
2021/05/24 05:04:15;;;;;;;2.67;2.47;;;25.00;99.90;;;;;;5013053;28;20445;-68
2021/05/24 05:06:44;;;;;;;1.73;1.63;;;25.90;99.90;;;;;;5016396;28;20417;-67
2021/05/24 05:09:12;;;;;;;2.70;2.00;;;26.80;99.90;;;;;;4999646;28;20440;-66
2021/05/24 05:11:39;;;;;;;2.70;1.97;;;26.80;1.00;;;;;;5018655;28;20398;-67
2021/05/24 05:14:07;;;;;;;3.10;1.80;;;26.10;1.00;;;;;;5013789;28;20424;-67
2021/05/24 05:16:35;;;;;;;2.70;1.80;;;25.80;1.00;;;;;;5011487;28;20413;-68
2021/05/24 05:19:03;;;;;;;2.83;2.10;;;24.50;1.00;;;;;;5011240;28;20836;-67
2021/05/24 05:21:31;;;;;;;3.20;2.00;;;25.30;1.00;;;;;;5011346;28;20392;-68
2021/05/24 05:23:59;;;;;;;2.60;2.03;;;25.10;1.00;;;;;;5011430;28;20415;-68
2021/05/24 05:26:27;;;;;;;2.20;2.00;;;25.50;1.00;;;;;;5011452;28;20425;-66
2021/05/24 05:28:55;;;;;;;2.47;1.90;;;25.20;1.00;;;;;;5011482;28;20775;-67
2021/05/24 05:31:24;;;;;;;1.93;1.83;;;23.40;1.00;;;;;;4993514;28;20411;-66
2021/05/24 05:33:52;;;;;;;2.40;1.80;;;21.20;1.00;;;;;;5011377;28;20420;-66
2021/05/24 05:36:20;;;;;;;2.87;2.60;;;18.80;99.90;;;;;;5011174;28;20767;-66
2021/05/24 05:38:47;;;;;;;2.23;1.97;;;17.10;1.00;;;;;;5010985;28;20778;-67
2021/05/24 05:41:16;;;;;;;3.70;2.00;;;16.10;1.00;;;;;;5011027;28;20431;-68
2021/05/24 05:43:43;;;;;;;1.77;1.67;;;15.10;99.90;;;;;;5011303;28;20492;-67
2021/05/24 05:46:11;;;;;;;2.33;2.13;;;14.70;1.00;;;;;;5011276;28;20425;-69
2021/05/24 05:48:39;;;;;;;2.13;1.73;;;14.40;99.90;;;;;;4993412;28;20806;-67
2021/05/24 05:51:09;;;;;;;3.03;1.87;;;14.40;99.90;;;;;;5010713;28;20906;-69
2021/05/24 05:53:37;;;;;;;1.93;1.77;;;14.30;99.90;;;;;;5011142;28;20499;-66
2021/05/24 05:56:05;;;;;;;2.20;2.00;;;14.40;99.90;;;;;;5011174;28;20419;-67
2021/05/24 05:58:34;;;;;;;1.50;1.33;;;14.40;99.90;;;;;;5011255;28;20769;-66
2021/05/24 06:01:04;;;;;;;1.90;1.40;;;14.40;99.90;;;;;;5010626;28;21022;-67
2021/05/24 06:03:33;;;;;;;2.17;1.80;;;14.40;99.90;;;;;;5010870;28;20457;-67
2021/05/24 06:06:01;;;;;;;2.20;2.00;;;14.30;99.90;;;;;;5011006;28;20431;-66
2021/05/24 06:08:28;;;;;;;2.37;2.00;;;14.40;99.90;;;;;;5010838;28;20433;-66
2021/05/24 06:10:57;;;;;;;1.40;1.20;;;14.60;99.90;;;;;;5014602;28;20421;-66
2021/05/24 06:13:25;;;;;;;1.70;1.60;;;14.70;99.90;;;;;;5014887;28;20440;-67
2021/05/24 06:15:54;;;;;;;1.90;1.80;;;14.70;99.90;;;;;;5015383;28;20784;-67
2021/05/24 06:18:22;;;;;;;2.30;1.33;;;14.90;99.90;;;;;;5014643;28;20947;-70
2021/05/24 06:20:49;;;;;;;2.27;1.37;;;15.00;99.90;;;;;;5014815;28;20526;-67
2021/05/24 06:23:17;;;;;;;1.40;1.30;;;14.90;99.90;;;;;;5014800;28;20427;-67
2021/05/24 06:25:45;;;;;;;2.70;1.30;;;14.90;99.90;;;;;;5014639;28;20392;-67
2021/05/24 06:28:13;;;;;;;1.47;1.10;;;14.90;99.90;;;;;;5014492;28;20400;-67
2021/05/24 06:30:41;;;;;;;1.90;1.10;;;15.00;99.90;;;;;;5014246;28;20416;-67
2021/05/24 06:33:10;;;;;;;3.37;1.20;;;15.00;99.90;;;;;;5014082;28;20422;-67
2021/05/24 06:35:38;;;;;;;1.70;1.37;;;15.10;99.90;;;;;;5014243;28;20752;-68
2021/05/24 06:38:06;;;;;;;2.30;1.13;;;15.30;99.90;;;;;;5014717;28;20424;-68
2021/05/24 06:40:33;;;;;;;1.23;1.13;;;15.30;99.90;;;;;;5015020;28;20444;-67
2021/05/24 06:43:01;;;;;;;1.43;1.20;;;15.40;99.90;;;;;;5013940;28;20487;-67
2021/05/24 06:45:29;;;;;;;2.80;1.27;;;15.50;99.90;;;;;;5014067;28;20421;-67
2021/05/24 06:47:57;;;;;;;2.53;1.50;;;15.70;99.90;;;;;;5013985;28;20492;-69
2021/05/24 06:50:25;;;;;;;1.57;1.00;;;15.90;99.90;;;;;;5014478;28;20392;-68
2021/05/24 06:52:53;;;;;;;1.43;1.17;;;16.20;99.90;;;;;;5014447;28;20412;-68
2021/05/24 06:55:21;;;;;;;1.70;1.47;;;16.30;99.90;;;;;;5015083;28;20482;-69
2021/05/24 06:57:48;;;;;;;1.20;1.03;;;16.50;99.90;;;;;;5016423;28;20434;-68
2021/05/24 07:00:17;;;;;;;3.20;2.90;;;16.50;99.90;;;;;;5014261;28;20431;-67
2021/05/24 07:02:48;;;;;;;1.97;1.30;;;16.50;99.90;;;;;;5014196;28;20974;-68
2021/05/24 07:05:16;;;;;;;1.50;1.27;;;16.50;99.90;;;;;;5014899;28;20433;-67
2021/05/24 07:07:44;;;;;;;1.97;1.43;;;16.60;99.90;;;;;;5014719;28;20396;-67
2021/05/24 07:10:13;;;;;;;3.17;1.63;;;16.70;99.90;;;;;;4997238;28;20422;-67
2021/05/24 07:12:41;;;;;;;2.10;1.00;;;16.70;99.90;;;;;;5013858;28;20424;-67
2021/05/24 07:15:09;;;;;;;1.77;1.30;;;16.80;99.90;;;;;;5014703;28;20421;-69
2021/05/24 07:17:37;;;;;;;1.87;1.17;;;16.80;99.90;;;;;;5015165;28;20421;-68
2021/05/24 07:20:07;;;;;;;2.10;1.03;;;16.90;99.90;;;;;;5013930;28;20483;-68
2021/05/24 07:22:35;;;;;;;1.90;1.50;;;16.90;99.90;;;;;;5013976;28;20990;-67
2021/05/24 07:25:06;;;;;;;3.20;0.87;;;16.90;99.90;;;;;;5014454;28;20392;-68
2021/05/24 07:27:34;;;;;;;1.83;1.10;;;17.10;99.90;;;;;;5014041;28;20392;-67
2021/05/24 07:30:02;;;;;;;1.60;1.47;;;17.10;99.90;;;;;;5014088;28;20448;-67
2021/05/24 07:32:29;;;;;;;6.03;4.30;;;17.20;99.90;;;;;;5013091;28;20416;-67
2021/05/24 07:34:58;;;;;;;1.20;1.00;;;17.30;99.90;;;;;;5013267;28;20512;-66
2021/05/24 07:37:26;;;;;;;1.30;0.90;;;17.40;99.90;;;;;;5013374;28;20490;-67
2021/05/24 07:39:53;;;;;;;1.30;0.80;;;17.50;99.90;;;;;;5013156;28;20461;-67
2021/05/24 07:42:22;;;;;;;1.67;1.37;;;17.50;99.90;;;;;;5012790;28;20421;-67
2021/05/24 07:44:50;;;;;;;2.80;1.20;;;17.70;99.90;;;;;;5012865;28;20398;-67
2021/05/24 07:47:17;;;;;;;2.33;1.00;;;17.70;99.90;;;;;;5012895;28;20421;-66
2021/05/24 07:49:46;;;;;;;1.20;1.07;;;17.80;99.90;;;;;;5012914;28;20436;-67
2021/05/24 07:52:14;;;;;;;1.37;1.03;;;18.00;99.90;;;;;;5012857;28;20673;-66
2021/05/24 07:54:42;;;;;;;1.60;1.30;;;18.00;99.90;;;;;;5013951;28;20400;-67
2021/05/24 07:57:10;;;;;;;1.60;0.80;;;18.10;99.90;;;;;;5013984;28;20425;-67
2021/05/24 07:59:38;;;;;;;1.43;0.90;;;18.10;99.90;;;;;;5012836;28;20752;-67
2021/05/24 08:02:07;;;;;;;2.00;1.53;;;18.00;99.90;;;;;;5012458;28;20420;-69
2021/05/24 08:04:34;;;;;;;1.80;1.30;;;18.10;99.90;;;;;;5012635;28;20786;-67
2021/05/24 08:07:02;;;;;;;1.50;0.90;;;18.30;99.90;;;;;;5012546;28;20446;-68
2021/05/24 08:09:30;;;;;;;1.83;1.30;;;18.30;99.90;;;;;;5012628;28;20431;-67
2021/05/24 08:11:58;;;;;;;1.10;0.77;;;18.40;99.90;;;;;;5012406;28;20385;-67
2021/05/24 08:14:26;;;;;;;1.60;1.03;;;18.50;99.90;;;;;;5012418;28;20420;-67
2021/05/24 08:16:55;;;;;;;1.87;1.27;;;18.70;99.90;;;;;;5012475;28;20422;-66
2021/05/24 08:19:22;;;;;;;1.73;1.00;;;18.80;99.90;;;;;;5012744;28;20417;-67
2021/05/24 08:21:51;;;;;;;2.63;1.43;;;18.80;99.90;;;;;;5012427;28;20452;-67
2021/05/24 08:24:19;;;;;;;1.30;0.90;;;18.90;99.90;;;;;;5013257;28;20448;-67
2021/05/24 08:26:47;;;;;;;2.97;0.97;;;18.90;99.90;;;;;;5013200;28;20449;-68
2021/05/24 08:29:15;;;;;;;1.70;1.40;;;19.00;99.90;;;;;;5012322;28;20924;-67
2021/05/24 08:31:43;;;;;;;1.77;1.23;;;19.10;99.90;;;;;;5025035;23;20919;-67
2021/05/24 08:34:12;;;;;;;1.73;1.10;;;19.10;99.90;;;;;;5011582;28;20812;-67
2021/05/24 08:36:42;;;;;;;3.77;1.07;;;19.00;99.90;;;;;;5012276;28;20506;-68
2021/05/24 08:39:10;;;;;;;1.20;1.00;;;19.00;99.90;;;;;;5012011;28;20387;-67
2021/05/24 08:41:39;;;;;;;1.97;1.20;;;19.30;99.90;;;;;;5011561;28;20466;-67
2021/05/24 08:44:08;;;;;;;1.77;0.80;;;19.60;99.90;;;;;;5011876;28;20775;-68
2021/05/24 08:46:36;;;;;;;1.50;1.00;;;19.50;99.90;;;;;;5012252;28;20425;-68
2021/05/24 08:49:05;;;;;;;7.53;1.30;;;19.60;99.90;;;;;;5011972;28;20483;-67
2021/05/24 08:51:34;;;;;;;2.50;1.33;;;19.80;99.90;;;;;;5011770;28;20400;-68
2021/05/24 08:54:02;;;;;;;1.30;0.97;;;19.90;99.90;;;;;;5011846;28;20451;-67
2021/05/24 08:56:31;;;;;;;1.10;0.73;;;19.90;99.90;;;;;;5011918;28;20784;-67
2021/05/24 08:59:00;;;;;;;1.80;0.80;;;19.70;99.90;;;;;;5012024;28;20827;-69
2021/05/24 09:01:27;;;;;;;1.40;1.10;;;19.50;99.90;;;;;;5011014;28;20467;-68
2021/05/24 09:04:00;;;;;;;1.40;1.00;;;19.50;99.90;;;;;;5011407;28;21016;-68
2021/05/24 09:06:36;;;;;;;1.83;1.10;;;19.60;99.90;;;;;;5011489;28;20425;-68
2021/05/24 09:09:09;;;;;;;3.40;2.63;;;19.70;99.90;;;;;;5011395;28;20924;-69
2021/05/24 09:11:37;;;;;;;1.17;1.03;;;19.60;99.90;;;;;;5011040;28;20421;-68
2021/05/24 09:14:16;;;;;;;1.20;0.83;;;19.60;99.90;;;;;;5011122;28;20415;-67
2021/05/24 09:16:44;;;;;;;1.47;1.00;;;19.40;99.90;;;;;;5011332;28;20403;-68
2021/05/24 09:19:14;;;;;;;1.53;0.73;;;19.50;99.90;;;;;;5011237;28;20468;-68
2021/05/24 09:21:50;;;;;;;1.53;0.87;;;19.70;99.90;;;;;;5011035;28;20440;-68
2021/05/24 09:24:28;;;;;;;1.77;0.70;;;19.70;99.90;;;;;;5011136;28;20441;-69
2021/05/24 09:26:57;;;;;;;2.17;1.40;;;19.70;99.90;;;;;;5011369;28;20429;-67
2021/05/24 09:29:26;;;;;;;1.23;0.70;;;19.80;99.90;;;;;;5011142;28;20891;-67
2021/05/24 09:32:14;;;;;;;1.27;0.67;;;20.10;99.90;;;;;;5011125;28;20412;-68
2021/05/24 09:34:43;;;;;;;2.30;1.10;;;20.50;99.90;;;;;;5010984;28;20441;-67
2021/05/24 09:37:12;;;;;;;2.10;1.47;;;20.60;99.90;;;;;;5011272;28;20403;-67
2021/05/24 09:39:41;;;;;;;2.20;0.90;;;20.50;99.90;;;;;;5011411;28;20830;-68
2021/05/24 09:42:10;;;;;;;1.80;0.93;;;20.40;99.90;;;;;;5010784;28;20465;-67
2021/05/24 09:44:44;;;;;;;1.23;0.67;;;20.50;99.90;;;;;;5010542;28;20505;-66
2021/05/24 09:47:12;;;;;;;1.17;0.70;;;20.80;99.90;;;;;;5011102;28;20421;-67
2021/05/24 09:49:40;;;;;;;2.40;0.73;;;21.10;99.90;;;;;;5011631;28;20762;-67
2021/05/24 09:52:07;;;;;;;2.10;1.70;;;21.20;99.90;;;;;;5010919;28;20403;-66
2021/05/24 09:54:38;;;;;;;2.03;0.70;;;21.10;99.90;;;;;;5010720;28;20429;-68
2021/05/24 09:57:10;;;;;;;1.00;0.60;;;20.50;99.90;;;;;;5011072;28;20452;-67
2021/05/24 09:59:38;;;;;;;1.70;1.13;;;20.60;99.90;;;;;;5011041;28;20468;-68
2021/05/24 10:02:08;;;;;;;1.17;0.80;;;20.70;99.90;;;;;;5010670;28;20483;-68
2021/05/24 10:04:37;;;;;;;1.50;0.90;;;20.90;99.90;;;;;;5010603;28;20403;-67
2021/05/24 10:07:06;;;;;;;1.40;0.70;;;20.90;99.90;;;;;;5010681;28;20425;-67
2021/05/24 10:09:36;;;;;;;2.80;1.07;;;20.70;99.90;;;;;;5010749;28;20911;-67
2021/05/24 10:12:05;;;;;;;1.00;0.73;;;20.70;99.90;;;;;;5010422;28;20835;-67
2021/05/24 10:14:34;;;;;;;1.87;0.80;;;20.70;99.90;;;;;;5010397;28;20421;-69
2021/05/24 10:17:04;;;;;;;1.00;0.80;;;20.80;99.90;;;;;;5010842;28;20403;-68
2021/05/24 10:19:32;;;;;;;1.00;0.60;;;20.80;99.90;;;;;;5010627;28;20424;-68
2021/05/24 10:22:00;;;;;;;1.40;0.73;;;21.30;99.90;;;;;;5010251;28;20952;-67
2021/05/24 10:24:28;;;;;;;1.50;0.80;;;21.20;99.90;;;;;;5010389;28;20630;-68
2021/05/24 10:26:58;;;;;;;1.20;0.90;;;20.90;99.90;;;;;;5010505;28;20512;-68
2021/05/24 10:29:27;;;;;;;1.00;0.70;;;20.60;99.90;;;;;;5010426;28;20463;-67
2021/05/24 10:31:54;;;;;;;1.97;1.37;;;20.80;99.90;;;;;;5010107;28;20798;-67
2021/05/24 10:34:25;;;;;;;1.50;0.97;;;21.20;99.90;;;;;;5010256;28;20419;-69
2021/05/24 10:37:06;;;;;;;1.00;0.60;;;21.60;99.90;;;;;;4992722;28;20443;-67
2021/05/24 10:39:49;;;;;;;1.07;0.60;;;21.90;99.90;;;;;;5010352;28;20504;-68
2021/05/24 10:42:18;;;;;;;2.63;0.93;;;21.90;99.90;;;;;;5009919;28;20475;-67
2021/05/24 10:44:48;;;;;;;1.83;1.37;;;21.60;99.90;;;;;;5010342;28;20925;-68
2021/05/24 10:47:21;;;;;;;1.90;0.90;;;22.00;99.90;;;;;;5010814;28;20417;-67
2021/05/24 10:50:04;;;;;;;1.63;0.73;;;22.20;99.90;;;;;;5010263;28;20870;-66
2021/05/24 10:52:34;;;;;;;1.10;0.60;;;22.10;99.90;;;;;;5010202;28;20481;-65
2021/05/24 10:55:31;;;;;;;1.13;0.70;;;21.90;99.90;;;;;;5010239;28;20472;-67
2021/05/24 10:58:02;;;;;;;1.50;1.00;;;22.10;99.90;;;;;;4996029;28;20441;-68
2021/05/24 11:00:48;;;;;;;1.60;0.90;;;22.50;99.90;;;;;;5013959;28;20475;-67
2021/05/24 11:03:16;;;;;;;1.63;1.00;;;22.90;99.90;;;;;;5013576;28;20516;-67
2021/05/24 11:05:48;;;;;;;2.30;0.87;;;22.70;99.90;;;;;;5013498;28;20414;-67
2021/05/24 11:08:26;;;;;;;1.50;0.70;;;22.50;99.90;;;;;;5013496;28;20417;-69
2021/05/24 11:10:54;;;;;;;1.93;0.77;;;22.30;99.90;;;;;;5013315;28;20909;-67
2021/05/24 11:13:27;;;;;;;2.20;1.30;;;22.00;99.90;;;;;;5013098;28;20444;-68
2021/05/24 11:16:11;;;;;;;1.70;1.00;;;22.30;99.90;;;;;;5013285;28;20421;-68
2021/05/24 11:18:42;;;;;;;1.20;0.90;;;22.40;99.90;;;;;;5013257;28;20428;-69
2021/05/24 11:21:23;;;;;;;1.87;0.70;;;22.60;99.90;;;;;;5012976;28;20571;-68
2021/05/24 11:24:20;;;;;;;3.20;1.97;;;22.70;99.90;;;;;;5013065;28;20816;-67
2021/05/24 11:26:48;;;;;;;1.63;0.70;;;23.20;99.90;;;;;;5013260;28;20819;-66
2021/05/24 11:29:17;;;;;;;1.30;0.80;;;23.00;99.90;;;;;;5013032;28;20552;-67
2021/05/24 11:31:51;;;;;;;1.10;0.60;;;23.00;99.90;;;;;;5012787;28;20981;-67
2021/05/24 11:34:34;;;;;;;1.30;0.80;;;22.80;99.90;;;;;;5013174;28;20961;-67
2021/05/24 11:37:05;;;;;;;1.00;0.63;;;22.60;99.90;;;;;;5012999;28;20825;-67
2021/05/24 11:39:45;;;;;;;1.53;0.97;;;22.30;99.90;;;;;;5013352;28;20421;-66
2021/05/24 11:42:22;;;;;;;1.30;0.80;;;22.30;99.90;;;;;;5012767;28;20491;-68
2021/05/24 11:44:51;;;;;;;1.20;0.80;;;22.50;99.90;;;;;;5013609;28;20839;-68
2021/05/24 11:47:21;;;;;;;2.27;1.20;;;22.50;99.90;;;;;;5013095;28;20433;-69
2021/05/24 11:49:57;;;;;;;1.03;0.70;;;22.50;99.90;;;;;;5012986;28;20881;-67
2021/05/24 11:52:33;;;;;;;1.43;1.13;;;22.40;99.90;;;;;;5012517;28;20444;-69
2021/05/24 11:55:06;;;;;;;1.30;0.70;;;22.30;99.90;;;;;;5012909;28;20406;-67
2021/05/24 11:57:36;;;;;;;3.60;1.73;;;21.90;99.90;;;;;;5012683;28;20490;-67
2021/05/24 12:00:09;;;;;;;0.90;0.60;;;21.90;99.90;;;;;;5013253;28;20428;-68
2021/05/24 12:02:42;;;;;;;1.63;0.70;;;22.10;99.90;;;;;;5012666;28;20476;-68
2021/05/24 12:05:11;;;;;;;1.87;0.90;;;22.30;99.90;;;;;;5012961;28;20436;-67
2021/05/24 12:07:39;;;;;;;7.03;0.90;;;22.40;99.90;;;;;;5013121;28;20432;-67
2021/05/24 12:10:10;;;;;;;1.30;1.03;;;22.40;99.90;;;;;;5013123;28;20421;-69
2021/05/24 12:12:38;;;;;;;2.47;1.00;;;22.80;99.90;;;;;;5012844;28;20455;-68
2021/05/24 12:15:11;;;;;;;1.50;0.83;;;23.00;99.90;;;;;;5013632;28;20432;-68
2021/05/24 12:17:46;;;;;;;1.40;0.80;;;23.30;99.90;;;;;;5018569;28;20433;-68
2021/05/24 12:20:14;;;;;;;1.47;0.90;;;23.50;99.90;;;;;;5019528;28;20479;-68
2021/05/24 12:22:44;;;;;;;2.03;1.00;;;23.70;99.90;;;;;;5017704;28;20526;-67
2021/05/24 12:25:14;;;;;;;2.40;1.20;;;23.30;99.90;;;;;;5016876;28;20412;-66
2021/05/24 12:27:42;;;;;;;1.30;0.77;;;22.80;99.90;;;;;;5016402;28;20875;-66
2021/05/24 12:30:20;;;;;;;1.20;0.80;;;22.70;99.90;;;;;;5015454;28;20643;-68
2021/05/24 12:32:52;;;;;;;1.67;0.90;;;22.80;99.90;;;;;;5013530;28;20491;-70
2021/05/24 12:35:24;;;;;;;1.97;0.70;;;23.00;99.90;;;;;;5013581;28;20467;-69
2021/05/24 12:38:01;;;;;;;1.20;0.60;;;22.80;99.90;;;;;;5013102;28;20435;-66
2021/05/24 12:40:30;;;;;;;1.30;0.70;;;22.80;99.90;;;;;;5012368;28;20519;-68
2021/05/24 12:42:58;;;;;;;1.50;0.80;;;22.30;99.90;;;;;;5011957;28;20439;-68
2021/05/24 12:45:28;;;;;;;2.43;1.03;;;22.10;99.90;;;;;;5012374;28;20465;-68
2021/05/24 12:48:10;;;;;;;1.70;0.80;;;21.90;99.90;;;;;;5012268;28;20404;-68
2021/05/24 12:50:38;;;;;;;1.20;0.83;;;22.00;99.90;;;;;;5011292;28;20392;-69
2021/05/24 12:53:10;;;;;;;1.10;0.70;;;22.30;99.90;;;;;;5011599;28;20528;-68
2021/05/24 12:55:38;;;;;;;2.70;0.90;;;22.50;99.90;;;;;;5011460;28;20440;-68
2021/05/24 12:58:11;;;;;;;1.30;0.60;;;22.70;99.90;;;;;;5011508;28;20396;-69